MDT,Max TemperatureF,Mean TemperatureF,Min TemperatureF,Max Dew PointF,MeanDew PointF,Min DewpointF,Max Humidity, Mean Humidity, Min Humidity, Max Sea Level PressureIn, Mean Sea Level PressureIn, Min Sea Level PressureIn, Max VisibilityMiles, Mean VisibilityMiles, Min VisibilityMiles, Max Wind SpeedMPH, Mean Wind SpeedMPH, Max Gust SpeedMPH,PrecipitationIn, CloudCover, Events, WindDirDegrees
2013-7-1,87,73,59,49,42,35,67,36,16,30.27,29.89,29.79,10,10,5,20,8,30,0.00,1,Rain,161
2013-7-2,81,69,57,61,50,45,88,56,28,30.27,29.92,29.82,10,9,2,15,5,21,0.56,2,Rain,175
2013-7-3,87,68,50,52,43,31,96,44,13,29.98,29.82,29.68,10,10,10,18,4,28,0.00,1,,4
2013-7-4,87,70,53,49,42,33,83,38,15,29.78,29.71,29.66,10,10,7,13,3,17,0.00,2,Rain,168
2013-7-5,87,76,64,51,46,41,61,39,21,30.15,29.74,29.62,10,10,10,16,6,23,0.00,3,,213
2013-7-6,86,70,55,51,48,40,84,50,20,29.85,29.80,29.74,10,10,10,13,4,20,0.00,3,,285
2013-7-7,89,71,53,54,46,34,83,44,15,29.91,29.81,29.71,10,10,7,13,3,24,0.12,2,Rain,203
2013-7-8,84,72,59,57,49,41,83,48,23,29.99,29.91,29.87,10,10,10,13,3,23,0.00,2,,62
2013-7-9,89,71,53,51,45,39,86,43,17,30.01,29.95,29.88,10,10,10,22,5,29,0.00,1,,1
2013-7-10,90,72,54,47,44,38,72,38,16,29.97,29.89,29.81,10,10,10,17,3,30,0.00,0,,231
2013-7-11,86,74,63,54,49,42,63,45,21,29.94,29.84,29.75,10,10,10,15,4,34,0.00,1,,218
2013-7-12,82,70,59,54,50,44,81,49,26,29.90,29.85,29.80,10,10,10,18,5,26,0.00,1,,229
2013-7-13,82,67,52,59,51,46,87,60,28,30.00,29.93,29.88,10,10,10,14,3,24,0.04,3,Rain,135
2013-7-14,84,70,57,59,53,44,97,60,24,30.25,29.92,29.80,10,10,4,20,3,43,0.04,3,Rain,330
2013-7-15,79,68,57,60,56,50,90,76,37,30.27,29.94,29.82,10,10,10,10,5,22,0.11,5,Rain,32
2013-7-16,78,68,57,57,50,44,94,61,30,30.26,29.98,29.86,10,10,5,8,2,16,0.08,6,Rain,174
2013-7-17,82,71,60,56,50,40,83,55,23,30.37,30.03,29.91,10,10,10,13,4,16,0.00,6,,169
2013-7-18,84,70,57,49,45,40,69,41,20,30.02,29.93,29.81,10,10,10,15,5,22,0.00,3,,141
2013-7-19,82,70,57,57,51,46,83,59,27,30.30,29.96,29.84,10,9,2,22,4,30,0.33,3,Rain,72
2013-7-20,82,68,55,56,53,49,96,63,34,29.88,29.82,29.75,10,10,10,14,2,21,0.00,2,,178
2013-7-21,80,68,57,59,53,47,90,64,31,30.14,29.86,29.78,10,10,10,16,2,29,0.03,3,Rain,200
2013-7-22,82,68,55,56,51,47,93,57,29,30.19,29.90,29.81,10,10,10,16,3,23,0.00,2,Rain,261
2013-7-23,86,74,61,57,50,42,87,51,21,30.24,29.91,29.78,10,10,2,18,5,26,0.04,3,Rain,224
2013-7-24,86,70,55,59,52,40,93,60,20,30.21,29.90,29.81,10,10,10,20,5,28,0.04,4,Rain,103
2013-7-25,82,68,55,61,57,51,96,76,36,30.31,30.00,29.88,10,9,1,20,2,28,0.61,2,Rain,146
2013-7-26,80,68,57,60,55,48,93,69,42,30.38,30.05,29.94,10,10,2,18,4,32,0.00,2,Rain,267
2013-7-27,78,68,57,56,53,48,86,64,36,30.26,30.00,29.84,10,9,1,13,3,25,0.27,3,Rain,182
2013-7-28,77,67,57,56,54,50,90,68,39,30.21,29.86,29.81,10,10,9,20,5,29,0.00,4,Rain,266
2013-7-29,81,67,53,54,49,41,89,56,26,30.30,29.96,29.87,10,10,10,13,3,20,0.00,2,Rain,260
2013-7-30,84,68,51,51,44,35,89,47,17,30.12,30.06,30.01,10,10,10,9,1,17,0.00,0,,274
2013-7-31,86,70,53,48,43,36,75,42,17,30.11,30.03,29.96,10,10,10,12,3,16,0.00,3,Rain,234